sensor_id;sensor_type;location;lat;lon;timestamp;P1;durP1;ratioP1;P2;durP2;ratioP2
5303;SDS011;2674;49.722;10.892;2023-02-25T00:01:07;14.83;;;7.80;;
5303;SDS011;2674;49.722;10.892;2023-02-25T00:03:37;12.40;;;7.23;;
5303;SDS011;2674;49.722;10.892;2023-02-25T00:06:04;18.50;;;9.00;;
5303;SDS011;2674;49.722;10.892;2023-02-25T00:08:31;15.57;;;8.47;;
5303;SDS011;2674;49.722;10.892;2023-02-25T00:10:59;9.87;;;7.40;;
5303;SDS011;2674;49.722;10.892;2023-02-25T00:13:29;11.87;;;7.27;;
5303;SDS011;2674;49.722;10.892;2023-02-25T00:15:55;14.90;;;8.47;;
5303;SDS011;2674;49.722;10.892;2023-02-25T00:18:25;15.70;;;7.73;;
5303;SDS011;2674;49.722;10.892;2023-02-25T00:20:52;17.33;;;8.67;;
5303;SDS011;2674;49.722;10.892;2023-02-25T00:23:19;12.90;;;7.53;;
5303;SDS011;2674;49.722;10.892;2023-02-25T00:25:45;10.30;;;6.70;;
5303;SDS011;2674;49.722;10.892;2023-02-25T00:28:11;13.73;;;7.37;;
5303;SDS011;2674;49.722;10.892;2023-02-25T00:30:37;13.60;;;7.93;;
5303;SDS011;2674;49.722;10.892;2023-02-25T00:33:04;11.50;;;7.03;;
5303;SDS011;2674;49.722;10.892;2023-02-25T00:35:33;13.23;;;7.20;;
5303;SDS011;2674;49.722;10.892;2023-02-25T00:38:02;11.33;;;7.60;;
5303;SDS011;2674;49.722;10.892;2023-02-25T00:40:31;14.90;;;7.57;;
5303;SDS011;2674;49.722;10.892;2023-02-25T00:42:57;13.10;;;7.00;;
5303;SDS011;2674;49.722;10.892;2023-02-25T00:45:23;10.47;;;7.03;;
5303;SDS011;2674;49.722;10.892;2023-02-25T00:47:48;11.97;;;7.67;;
5303;SDS011;2674;49.722;10.892;2023-02-25T00:50:14;12.93;;;6.87;;
5303;SDS011;2674;49.722;10.892;2023-02-25T00:52:40;12.87;;;8.07;;
5303;SDS011;2674;49.722;10.892;2023-02-25T00:55:06;11.57;;;7.57;;
5303;SDS011;2674;49.722;10.892;2023-02-25T00:57:33;11.90;;;7.70;;
5303;SDS011;2674;49.722;10.892;2023-02-25T00:59:59;13.70;;;8.40;;
5303;SDS011;2674;49.722;10.892;2023-02-25T01:02:24;15.77;;;9.03;;
5303;SDS011;2674;49.722;10.892;2023-02-25T01:04:50;16.73;;;7.77;;
5303;SDS011;2674;49.722;10.892;2023-02-25T01:07:16;12.27;;;7.80;;
5303;SDS011;2674;49.722;10.892;2023-02-25T01:09:45;12.50;;;7.93;;
5303;SDS011;2674;49.722;10.892;2023-02-25T01:12:11;11.33;;;7.87;;
5303;SDS011;2674;49.722;10.892;2023-02-25T01:14:36;14.63;;;9.00;;
5303;SDS011;2674;49.722;10.892;2023-02-25T01:17:03;11.87;;;7.30;;
5303;SDS011;2674;49.722;10.892;2023-02-25T01:19:28;14.10;;;7.80;;
5303;SDS011;2674;49.722;10.892;2023-02-25T01:21:55;18.30;;;9.37;;
5303;SDS011;2674;49.722;10.892;2023-02-25T01:24:27;15.77;;;7.80;;
5303;SDS011;2674;49.722;10.892;2023-02-25T01:26:55;14.30;;;8.70;;
5303;SDS011;2674;49.722;10.892;2023-02-25T01:29:24;16.13;;;7.50;;
5303;SDS011;2674;49.722;10.892;2023-02-25T01:31:52;15.70;;;7.00;;
5303;SDS011;2674;49.722;10.892;2023-02-25T01:34:19;14.10;;;6.90;;
5303;SDS011;2674;49.722;10.892;2023-02-25T01:36:45;9.40;;;6.50;;
5303;SDS011;2674;49.722;10.892;2023-02-25T01:39:12;13.17;;;6.57;;
5303;SDS011;2674;49.722;10.892;2023-02-25T01:41:40;10.97;;;7.50;;
5303;SDS011;2674;49.722;10.892;2023-02-25T01:44:22;13.33;;;6.67;;
5303;SDS011;2674;49.722;10.892;2023-02-25T01:46:58;13.70;;;6.60;;
5303;SDS011;2674;49.722;10.892;2023-02-25T01:52:09;12.90;;;5.50;;
5303;SDS011;2674;49.722;10.892;2023-02-25T01:54:48;15.23;;;5.93;;
5303;SDS011;2674;49.722;10.892;2023-02-25T01:57:17;8.47;;;5.20;;
5303;SDS011;2674;49.722;10.892;2023-02-25T01:59:43;10.53;;;5.40;;
5303;SDS011;2674;49.722;10.892;2023-02-25T02:02:11;9.30;;;5.30;;
5303;SDS011;2674;49.722;10.892;2023-02-25T02:04:40;17.47;;;5.63;;
5303;SDS011;2674;49.722;10.892;2023-02-25T02:07:07;12.57;;;4.87;;
5303;SDS011;2674;49.722;10.892;2023-02-25T02:09:33;13.93;;;6.30;;
5303;SDS011;2674;49.722;10.892;2023-02-25T02:12:00;7.13;;;4.70;;
5303;SDS011;2674;49.722;10.892;2023-02-25T02:14:29;12.30;;;4.80;;
5303;SDS011;2674;49.722;10.892;2023-02-25T02:22:20;10.93;;;3.30;;
5303;SDS011;2674;49.722;10.892;2023-02-25T02:25:26;6.67;;;3.80;;
5303;SDS011;2674;49.722;10.892;2023-02-25T02:40:02;3.90;;;2.40;;
5303;SDS011;2674;49.722;10.892;2023-02-25T02:42:50;6.00;;;2.50;;
5303;SDS011;2674;49.722;10.892;2023-02-25T02:45:35;6.83;;;3.87;;
5303;SDS011;2674;49.722;10.892;2023-02-25T02:48:33;3.13;;;2.80;;
5303;SDS011;2674;49.722;10.892;2023-02-25T02:51:10;6.70;;;3.13;;
5303;SDS011;2674;49.722;10.892;2023-02-25T02:53:44;5.40;;;3.00;;
5303;SDS011;2674;49.722;10.892;2023-02-25T02:56:16;4.03;;;3.00;;
5303;SDS011;2674;49.722;10.892;2023-02-25T02:58:46;9.93;;;3.00;;
5303;SDS011;2674;49.722;10.892;2023-02-25T03:01:17;11.83;;;4.43;;
5303;SDS011;2674;49.722;10.892;2023-02-25T03:03:51;9.77;;;3.90;;
5303;SDS011;2674;49.722;10.892;2023-02-25T03:06:41;11.80;;;4.20;;
5303;SDS011;2674;49.722;10.892;2023-02-25T03:09:11;5.13;;;4.10;;
5303;SDS011;2674;49.722;10.892;2023-02-25T03:11:42;6.70;;;3.50;;
5303;SDS011;2674;49.722;10.892;2023-02-25T03:14:09;8.47;;;4.20;;
5303;SDS011;2674;49.722;10.892;2023-02-25T03:16:41;6.43;;;4.10;;
5303;SDS011;2674;49.722;10.892;2023-02-25T03:19:16;9.40;;;4.07;;
5303;SDS011;2674;49.722;10.892;2023-02-25T03:22:09;7.77;;;4.07;;
5303;SDS011;2674;49.722;10.892;2023-02-25T03:27:45;11.57;;;3.90;;
5303;SDS011;2674;49.722;10.892;2023-02-25T03:33:27;10.13;;;3.90;;
5303;SDS011;2674;49.722;10.892;2023-02-25T03:36:15;6.33;;;3.53;;
5303;SDS011;2674;49.722;10.892;2023-02-25T03:38:47;3.47;;;2.60;;
5303;SDS011;2674;49.722;10.892;2023-02-25T03:41:15;8.60;;;3.00;;
5303;SDS011;2674;49.722;10.892;2023-02-25T03:43:49;5.50;;;2.70;;
5303;SDS011;2674;49.722;10.892;2023-02-25T03:46:19;5.43;;;2.73;;
5303;SDS011;2674;49.722;10.892;2023-02-25T03:48:45;8.97;;;3.00;;
5303;SDS011;2674;49.722;10.892;2023-02-25T03:51:13;8.70;;;2.90;;
5303;SDS011;2674;49.722;10.892;2023-02-25T03:53:43;10.67;;;2.80;;
5303;SDS011;2674;49.722;10.892;2023-02-25T03:56:09;5.57;;;2.43;;
5303;SDS011;2674;49.722;10.892;2023-02-25T03:58:36;9.97;;;2.93;;
5303;SDS011;2674;49.722;10.892;2023-02-25T04:01:05;5.80;;;2.47;;
5303;SDS011;2674;49.722;10.892;2023-02-25T04:03:35;6.80;;;2.50;;
5303;SDS011;2674;49.722;10.892;2023-02-25T04:06:01;2.73;;;1.97;;
5303;SDS011;2674;49.722;10.892;2023-02-25T04:08:27;5.30;;;2.43;;
5303;SDS011;2674;49.722;10.892;2023-02-25T04:10:53;11.40;;;2.50;;
5303;SDS011;2674;49.722;10.892;2023-02-25T04:13:19;6.70;;;2.40;;
5303;SDS011;2674;49.722;10.892;2023-02-25T04:15:45;9.20;;;2.50;;
5303;SDS011;2674;49.722;10.892;2023-02-25T04:18:12;6.80;;;2.73;;
5303;SDS011;2674;49.722;10.892;2023-02-25T04:20:38;6.10;;;2.60;;
5303;SDS011;2674;49.722;10.892;2023-02-25T04:23:05;4.17;;;2.90;;
5303;SDS011;2674;49.722;10.892;2023-02-25T04:25:32;7.93;;;2.57;;
5303;SDS011;2674;49.722;10.892;2023-02-25T04:27:58;4.40;;;2.10;;
5303;SDS011;2674;49.722;10.892;2023-02-25T04:30:24;12.53;;;2.60;;
5303;SDS011;2674;49.722;10.892;2023-02-25T04:32:50;5.80;;;2.03;;
5303;SDS011;2674;49.722;10.892;2023-02-25T04:35:15;7.80;;;3.07;;
5303;SDS011;2674;49.722;10.892;2023-02-25T04:37:42;12.13;;;2.60;;
5303;SDS011;2674;49.722;10.892;2023-02-25T04:40:26;15.03;;;3.20;;
5303;SDS011;2674;49.722;10.892;2023-02-25T04:42:52;6.23;;;2.60;;
5303;SDS011;2674;49.722;10.892;2023-02-25T04:45:17;11.73;;;2.47;;
5303;SDS011;2674;49.722;10.892;2023-02-25T04:47:44;5.47;;;2.17;;
5303;SDS011;2674;49.722;10.892;2023-02-25T04:50:10;20.63;;;2.60;;
5303;SDS011;2674;49.722;10.892;2023-02-25T04:52:36;8.73;;;3.00;;
5303;SDS011;2674;49.722;10.892;2023-02-25T04:55:03;2.80;;;2.23;;
5303;SDS011;2674;49.722;10.892;2023-02-25T04:57:29;8.43;;;2.30;;
5303;SDS011;2674;49.722;10.892;2023-02-25T04:59:55;4.33;;;2.00;;
5303;SDS011;2674;49.722;10.892;2023-02-25T05:02:21;10.00;;;3.37;;
5303;SDS011;2674;49.722;10.892;2023-02-25T05:04:47;10.70;;;3.00;;
5303;SDS011;2674;49.722;10.892;2023-02-25T05:07:13;6.77;;;3.03;;
5303;SDS011;2674;49.722;10.892;2023-02-25T05:09:38;7.03;;;2.77;;
5303;SDS011;2674;49.722;10.892;2023-02-25T05:12:04;10.60;;;3.70;;
5303;SDS011;2674;49.722;10.892;2023-02-25T05:14:30;3.57;;;2.27;;
5303;SDS011;2674;49.722;10.892;2023-02-25T05:16:57;11.53;;;3.57;;
5303;SDS011;2674;49.722;10.892;2023-02-25T05:19:23;4.67;;;3.00;;
5303;SDS011;2674;49.722;10.892;2023-02-25T05:21:50;10.43;;;3.60;;
5303;SDS011;2674;49.722;10.892;2023-02-25T05:24:17;14.20;;;2.80;;
5303;SDS011;2674;49.722;10.892;2023-02-25T05:26:44;6.83;;;3.00;;
5303;SDS011;2674;49.722;10.892;2023-02-25T05:29:10;8.93;;;4.30;;
5303;SDS011;2674;49.722;10.892;2023-02-25T05:31:37;7.43;;;3.40;;
5303;SDS011;2674;49.722;10.892;2023-02-25T05:34:03;8.70;;;3.67;;
5303;SDS011;2674;49.722;10.892;2023-02-25T05:36:29;11.77;;;2.80;;
5303;SDS011;2674;49.722;10.892;2023-02-25T05:38:56;8.50;;;3.03;;
5303;SDS011;2674;49.722;10.892;2023-02-25T05:41:26;9.77;;;3.53;;
5303;SDS011;2674;49.722;10.892;2023-02-25T05:43:53;5.83;;;2.80;;
5303;SDS011;2674;49.722;10.892;2023-02-25T05:46:19;10.33;;;3.90;;
5303;SDS011;2674;49.722;10.892;2023-02-25T05:48:46;7.10;;;3.70;;
5303;SDS011;2674;49.722;10.892;2023-02-25T05:51:14;6.53;;;3.17;;
5303;SDS011;2674;49.722;10.892;2023-02-25T05:53:41;20.03;;;3.00;;
5303;SDS011;2674;49.722;10.892;2023-02-25T05:56:12;7.83;;;2.33;;
5303;SDS011;2674;49.722;10.892;2023-02-25T05:58:41;4.43;;;2.70;;
5303;SDS011;2674;49.722;10.892;2023-02-25T06:01:07;8.03;;;3.33;;
5303;SDS011;2674;49.722;10.892;2023-02-25T06:03:36;7.50;;;3.80;;
5303;SDS011;2674;49.722;10.892;2023-02-25T06:06:02;5.00;;;3.03;;
5303;SDS011;2674;49.722;10.892;2023-02-25T06:08:28;12.37;;;4.43;;
5303;SDS011;2674;49.722;10.892;2023-02-25T06:10:54;6.83;;;3.30;;
5303;SDS011;2674;49.722;10.892;2023-02-25T06:13:21;2.97;;;2.67;;
5303;SDS011;2674;49.722;10.892;2023-02-25T06:15:47;8.67;;;2.90;;
5303;SDS011;2674;49.722;10.892;2023-02-25T06:18:13;11.20;;;3.77;;
5303;SDS011;2674;49.722;10.892;2023-02-25T06:20:39;8.70;;;3.50;;
5303;SDS011;2674;49.722;10.892;2023-02-25T06:23:05;11.50;;;3.33;;
5303;SDS011;2674;49.722;10.892;2023-02-25T06:25:31;5.77;;;2.67;;
5303;SDS011;2674;49.722;10.892;2023-02-25T06:28:00;6.17;;;2.90;;
5303;SDS011;2674;49.722;10.892;2023-02-25T06:30:27;13.83;;;3.60;;
5303;SDS011;2674;49.722;10.892;2023-02-25T06:32:54;6.87;;;2.77;;
5303;SDS011;2674;49.722;10.892;2023-02-25T06:35:20;12.40;;;2.60;;
5303;SDS011;2674;49.722;10.892;2023-02-25T06:37:54;9.50;;;3.70;;
5303;SDS011;2674;49.722;10.892;2023-02-25T06:40:21;6.77;;;3.23;;
5303;SDS011;2674;49.722;10.892;2023-02-25T06:42:47;4.10;;;2.63;;
5303;SDS011;2674;49.722;10.892;2023-02-25T06:45:12;11.73;;;3.70;;
5303;SDS011;2674;49.722;10.892;2023-02-25T06:47:39;7.83;;;3.53;;
5303;SDS011;2674;49.722;10.892;2023-02-25T06:50:05;12.33;;;2.63;;
5303;SDS011;2674;49.722;10.892;2023-02-25T06:52:32;14.43;;;2.80;;
5303;SDS011;2674;49.722;10.892;2023-02-25T06:54:58;10.53;;;2.90;;
5303;SDS011;2674;49.722;10.892;2023-02-25T06:57:23;18.77;;;3.60;;
5303;SDS011;2674;49.722;10.892;2023-02-25T06:59:49;9.20;;;3.27;;
5303;SDS011;2674;49.722;10.892;2023-02-25T07:02:17;3.50;;;2.40;;
5303;SDS011;2674;49.722;10.892;2023-02-25T07:04:43;12.40;;;3.10;;
5303;SDS011;2674;49.722;10.892;2023-02-25T07:07:09;3.73;;;2.40;;
5303;SDS011;2674;49.722;10.892;2023-02-25T07:09:35;13.48;;;3.03;;
5303;SDS011;2674;49.722;10.892;2023-02-25T07:12:00;13.60;;;3.83;;
5303;SDS011;2674;49.722;10.892;2023-02-25T07:14:26;4.83;;;3.60;;
5303;SDS011;2674;49.722;10.892;2023-02-25T07:16:52;15.23;;;4.00;;
5303;SDS011;2674;49.722;10.892;2023-02-25T07:19:18;3.33;;;2.80;;
5303;SDS011;2674;49.722;10.892;2023-02-25T07:21:44;15.00;;;3.10;;
5303;SDS011;2674;49.722;10.892;2023-02-25T07:24:10;3.70;;;3.00;;
5303;SDS011;2674;49.722;10.892;2023-02-25T07:26:37;10.47;;;3.80;;
5303;SDS011;2674;49.722;10.892;2023-02-25T07:29:03;11.57;;;2.90;;
5303;SDS011;2674;49.722;10.892;2023-02-25T07:31:30;13.37;;;4.10;;
5303;SDS011;2674;49.722;10.892;2023-02-25T07:33:56;6.40;;;2.43;;
5303;SDS011;2674;49.722;10.892;2023-02-25T07:36:27;7.13;;;2.70;;
5303;SDS011;2674;49.722;10.892;2023-02-25T07:38:57;10.17;;;3.47;;
5303;SDS011;2674;49.722;10.892;2023-02-25T07:41:26;8.37;;;3.40;;
5303;SDS011;2674;49.722;10.892;2023-02-25T07:43:53;13.47;;;3.90;;
5303;SDS011;2674;49.722;10.892;2023-02-25T07:46:19;8.80;;;3.50;;
5303;SDS011;2674;49.722;10.892;2023-02-25T07:48:46;10.13;;;3.33;;
5303;SDS011;2674;49.722;10.892;2023-02-25T07:51:14;12.83;;;3.83;;
5303;SDS011;2674;49.722;10.892;2023-02-25T07:53:42;9.80;;;3.60;;
5303;SDS011;2674;49.722;10.892;2023-02-25T07:56:09;7.77;;;4.23;;
5303;SDS011;2674;49.722;10.892;2023-02-25T07:58:36;7.57;;;3.40;;
5303;SDS011;2674;49.722;10.892;2023-02-25T08:01:09;10.27;;;3.93;;
5303;SDS011;2674;49.722;10.892;2023-02-25T08:03:50;15.97;;;3.73;;
5303;SDS011;2674;49.722;10.892;2023-02-25T08:06:17;9.60;;;2.80;;
5303;SDS011;2674;49.722;10.892;2023-02-25T08:08:43;5.63;;;2.83;;
5303;SDS011;2674;49.722;10.892;2023-02-25T08:11:11;11.90;;;3.00;;
5303;SDS011;2674;49.722;10.892;2023-02-25T08:13:38;19.50;;;3.57;;
5303;SDS011;2674;49.722;10.892;2023-02-25T08:16:06;8.30;;;4.20;;
5303;SDS011;2674;49.722;10.892;2023-02-25T08:18:36;7.93;;;3.70;;
5303;SDS011;2674;49.722;10.892;2023-02-25T08:21:03;7.60;;;3.23;;
5303;SDS011;2674;49.722;10.892;2023-02-25T08:23:31;13.93;;;3.80;;
5303;SDS011;2674;49.722;10.892;2023-02-25T08:25:57;9.70;;;3.30;;
5303;SDS011;2674;49.722;10.892;2023-02-25T08:28:23;15.30;;;3.60;;
5303;SDS011;2674;49.722;10.892;2023-02-25T08:30:51;5.37;;;2.60;;
5303;SDS011;2674;49.722;10.892;2023-02-25T08:33:18;7.67;;;3.57;;
5303;SDS011;2674;49.722;10.892;2023-02-25T08:35:45;14.90;;;3.90;;
5303;SDS011;2674;49.722;10.892;2023-02-25T08:38:11;3.60;;;2.60;;
5303;SDS011;2674;49.722;10.892;2023-02-25T08:40:39;7.50;;;3.37;;
5303;SDS011;2674;49.722;10.892;2023-02-25T08:43:06;10.60;;;4.90;;
5303;SDS011;2674;49.722;10.892;2023-02-25T08:45:32;9.83;;;3.70;;
5303;SDS011;2674;49.722;10.892;2023-02-25T08:47:59;5.27;;;3.50;;
5303;SDS011;2674;49.722;10.892;2023-02-25T08:50:25;15.67;;;3.80;;
5303;SDS011;2674;49.722;10.892;2023-02-25T08:52:51;7.30;;;3.30;;
5303;SDS011;2674;49.722;10.892;2023-02-25T08:55:17;8.93;;;4.10;;
5303;SDS011;2674;49.722;10.892;2023-02-25T08:57:43;6.07;;;3.20;;
5303;SDS011;2674;49.722;10.892;2023-02-25T09:00:10;16.53;;;4.53;;
5303;SDS011;2674;49.722;10.892;2023-02-25T09:02:40;8.73;;;3.50;;
5303;SDS011;2674;49.722;10.892;2023-02-25T09:05:07;12.07;;;4.30;;
5303;SDS011;2674;49.722;10.892;2023-02-25T09:07:33;5.80;;;3.13;;
5303;SDS011;2674;49.722;10.892;2023-02-25T09:09:59;10.37;;;4.23;;
5303;SDS011;2674;49.722;10.892;2023-02-25T09:12:25;10.50;;;3.77;;
5303;SDS011;2674;49.722;10.892;2023-02-25T09:14:51;5.60;;;4.23;;
5303;SDS011;2674;49.722;10.892;2023-02-25T09:17:17;11.27;;;4.83;;
5303;SDS011;2674;49.722;10.892;2023-02-25T09:19:43;4.03;;;3.50;;
5303;SDS011;2674;49.722;10.892;2023-02-25T09:22:09;8.50;;;3.20;;
5303;SDS011;2674;49.722;10.892;2023-02-25T09:24:35;10.20;;;3.50;;
5303;SDS011;2674;49.722;10.892;2023-02-25T09:27:01;14.40;;;3.60;;
5303;SDS011;2674;49.722;10.892;2023-02-25T09:29:37;6.60;;;3.77;;
5303;SDS011;2674;49.722;10.892;2023-02-25T09:32:04;17.80;;;4.20;;
5303;SDS011;2674;49.722;10.892;2023-02-25T09:34:30;4.53;;;3.57;;
5303;SDS011;2674;49.722;10.892;2023-02-25T09:37:02;10.83;;;3.93;;
5303;SDS011;2674;49.722;10.892;2023-02-25T09:39:28;11.20;;;3.73;;
5303;SDS011;2674;49.722;10.892;2023-02-25T09:41:56;7.13;;;3.50;;
5303;SDS011;2674;49.722;10.892;2023-02-25T09:44:35;9.93;;;3.37;;
5303;SDS011;2674;49.722;10.892;2023-02-25T09:55:31;7.03;;;3.30;;
5303;SDS011;2674;49.722;10.892;2023-02-25T10:06:15;7.53;;;3.73;;
5303;SDS011;2674;49.722;10.892;2023-02-25T10:12:06;15.53;;;4.33;;
5303;SDS011;2674;49.722;10.892;2023-02-25T10:17:36;5.27;;;3.07;;
5303;SDS011;2674;49.722;10.892;2023-02-25T10:28:54;3.70;;;3.00;;
5303;SDS011;2674;49.722;10.892;2023-02-25T10:31:29;5.50;;;3.00;;
5303;SDS011;2674;49.722;10.892;2023-02-25T10:33:56;5.03;;;2.40;;
5303;SDS011;2674;49.722;10.892;2023-02-25T10:36:34;10.10;;;2.67;;
5303;SDS011;2674;49.722;10.892;2023-02-25T10:39:07;5.93;;;2.57;;
5303;SDS011;2674;49.722;10.892;2023-02-25T10:41:35;11.00;;;2.90;;
5303;SDS011;2674;49.722;10.892;2023-02-25T10:44:01;11.37;;;4.10;;
5303;SDS011;2674;49.722;10.892;2023-02-25T10:48:56;5.03;;;3.50;;
5303;SDS011;2674;49.722;10.892;2023-02-25T10:51:27;6.40;;;3.47;;
5303;SDS011;2674;49.722;10.892;2023-02-25T10:56:29;12.00;;;5.23;;
5303;SDS011;2674;49.722;10.892;2023-02-25T10:58:59;4.80;;;3.27;;
5303;SDS011;2674;49.722;10.892;2023-02-25T11:01:40;8.03;;;3.93;;
5303;SDS011;2674;49.722;10.892;2023-02-25T11:04:11;10.17;;;5.83;;
5303;SDS011;2674;49.722;10.892;2023-02-25T11:06:42;10.13;;;5.73;;
5303;SDS011;2674;49.722;10.892;2023-02-25T11:14:38;15.47;;;5.70;;
5303;SDS011;2674;49.722;10.892;2023-02-25T11:19:31;7.40;;;3.70;;
5303;SDS011;2674;49.722;10.892;2023-02-25T11:22:06;12.73;;;4.73;;
5303;SDS011;2674;49.722;10.892;2023-02-25T11:24:44;14.10;;;6.57;;
5303;SDS011;2674;49.722;10.892;2023-02-25T11:30:07;8.13;;;5.80;;
5303;SDS011;2674;49.722;10.892;2023-02-25T11:32:44;16.50;;;5.23;;
5303;SDS011;2674;49.722;10.892;2023-02-25T11:35:27;4.47;;;3.70;;
5303;SDS011;2674;49.722;10.892;2023-02-25T11:41:03;7.77;;;4.80;;
5303;SDS011;2674;49.722;10.892;2023-02-25T11:43:39;6.53;;;4.13;;
5303;SDS011;2674;49.722;10.892;2023-02-25T11:46:07;8.23;;;4.90;;
5303;SDS011;2674;49.722;10.892;2023-02-25T11:51:16;10.07;;;4.80;;
5303;SDS011;2674;49.722;10.892;2023-02-25T11:56:41;10.47;;;5.90;;
5303;SDS011;2674;49.722;10.892;2023-02-25T11:59:23;7.57;;;4.00;;
5303;SDS011;2674;49.722;10.892;2023-02-25T12:02:25;10.77;;;4.33;;
5303;SDS011;2674;49.722;10.892;2023-02-25T12:05:09;14.60;;;3.63;;
5303;SDS011;2674;49.722;10.892;2023-02-25T12:20:08;29.37;;;13.13;;
5303;SDS011;2674;49.722;10.892;2023-02-25T12:45:21;0.80;;;0.80;;
5303;SDS011;2674;49.722;10.892;2023-02-25T12:48:46;0.87;;;0.87;;
5303;SDS011;2674;49.722;10.892;2023-02-25T13:08:08;1.00;;;1.00;;
5303;SDS011;2674;49.722;10.892;2023-02-25T13:11:37;0.80;;;0.80;;
5303;SDS011;2674;49.722;10.892;2023-02-25T13:24:44;1.27;;;1.20;;
5303;SDS011;2674;49.722;10.892;2023-02-25T13:27:40;2.27;;;1.80;;
5303;SDS011;2674;49.722;10.892;2023-02-25T13:30:32;1.97;;;1.57;;
5303;SDS011;2674;49.722;10.892;2023-02-25T13:35:38;5.40;;;1.97;;
5303;SDS011;2674;49.722;10.892;2023-02-25T13:49:50;5.40;;;1.77;;
5303;SDS011;2674;49.722;10.892;2023-02-25T13:52:58;1.17;;;1.10;;
5303;SDS011;2674;49.722;10.892;2023-02-25T13:58:39;5.77;;;1.70;;
5303;SDS011;2674;49.722;10.892;2023-02-25T14:10:27;2.17;;;1.57;;
5303;SDS011;2674;49.722;10.892;2023-02-25T14:13:50;1.80;;;1.70;;
5303;SDS011;2674;49.722;10.892;2023-02-25T14:24:17;3.50;;;2.30;;
5303;SDS011;2674;49.722;10.892;2023-02-25T14:35:14;6.97;;;3.07;;
5303;SDS011;2674;49.722;10.892;2023-02-25T14:40:40;3.10;;;2.20;;
5303;SDS011;2674;49.722;10.892;2023-02-25T14:45:42;4.53;;;2.50;;
5303;SDS011;2674;49.722;10.892;2023-02-25T14:48:39;4.17;;;3.00;;
5303;SDS011;2674;49.722;10.892;2023-02-25T15:07:55;4.30;;;2.00;;
5303;SDS011;2674;49.722;10.892;2023-02-25T15:18:49;4.37;;;2.13;;
5303;SDS011;2674;49.722;10.892;2023-02-25T15:24:01;4.83;;;1.77;;
5303;SDS011;2674;49.722;10.892;2023-02-25T15:26:44;0.97;;;0.93;;
5303;SDS011;2674;49.722;10.892;2023-02-25T15:29:18;4.20;;;2.53;;
5303;SDS011;2674;49.722;10.892;2023-02-25T15:37:23;5.33;;;2.10;;
5303;SDS011;2674;49.722;10.892;2023-02-25T15:39:59;8.97;;;4.60;;
5303;SDS011;2674;49.722;10.892;2023-02-25T15:58:00;2.47;;;1.23;;
5303;SDS011;2674;49.722;10.892;2023-02-25T16:06:17;4.00;;;1.30;;
5303;SDS011;2674;49.722;10.892;2023-02-25T16:11:35;1.40;;;1.30;;
5303;SDS011;2674;49.722;10.892;2023-02-25T16:17:02;1.57;;;1.03;;
5303;SDS011;2674;49.722;10.892;2023-02-25T16:19:34;2.67;;;1.20;;
5303;SDS011;2674;49.722;10.892;2023-02-25T16:22:04;4.93;;;2.53;;
5303;SDS011;2674;49.722;10.892;2023-02-25T16:40:57;1.63;;;1.23;;
5303;SDS011;2674;49.722;10.892;2023-02-25T16:43:29;4.33;;;1.40;;
5303;SDS011;2674;49.722;10.892;2023-02-25T16:46:03;2.43;;;1.70;;
5303;SDS011;2674;49.722;10.892;2023-02-25T16:48:36;1.90;;;1.80;;
5303;SDS011;2674;49.722;10.892;2023-02-25T16:51:11;0.97;;;0.97;;
5303;SDS011;2674;49.722;10.892;2023-02-25T16:53:44;1.10;;;1.00;;
5303;SDS011;2674;49.722;10.892;2023-02-25T16:56:15;2.40;;;2.00;;
5303;SDS011;2674;49.722;10.892;2023-02-25T17:01:39;1.30;;;1.30;;
5303;SDS011;2674;49.722;10.892;2023-02-25T17:04:16;2.00;;;1.70;;
5303;SDS011;2674;49.722;10.892;2023-02-25T17:07:04;1.40;;;1.30;;
5303;SDS011;2674;49.722;10.892;2023-02-25T17:09:30;1.80;;;1.53;;
5303;SDS011;2674;49.722;10.892;2023-02-25T17:11:56;1.40;;;1.23;;
5303;SDS011;2674;49.722;10.892;2023-02-25T17:14:22;1.67;;;0.90;;
5303;SDS011;2674;49.722;10.892;2023-02-25T17:16:49;1.70;;;1.30;;
5303;SDS011;2674;49.722;10.892;2023-02-25T17:19:16;1.97;;;1.33;;
5303;SDS011;2674;49.722;10.892;2023-02-25T17:21:44;1.27;;;0.97;;
5303;SDS011;2674;49.722;10.892;2023-02-25T17:24:25;4.20;;;1.80;;
5303;SDS011;2674;49.722;10.892;2023-02-25T17:26:54;1.27;;;1.27;;
5303;SDS011;2674;49.722;10.892;2023-02-25T17:29:21;2.40;;;1.47;;
5303;SDS011;2674;49.722;10.892;2023-02-25T17:31:58;3.47;;;1.43;;
5303;SDS011;2674;49.722;10.892;2023-02-25T17:37:02;2.10;;;1.63;;
5303;SDS011;2674;49.722;10.892;2023-02-25T17:39:30;1.37;;;1.27;;
5303;SDS011;2674;49.722;10.892;2023-02-25T17:41:56;0.80;;;0.80;;
5303;SDS011;2674;49.722;10.892;2023-02-25T17:47:00;2.57;;;2.10;;
5303;SDS011;2674;49.722;10.892;2023-02-25T17:49:29;5.03;;;2.73;;
5303;SDS011;2674;49.722;10.892;2023-02-25T17:52:00;4.60;;;2.53;;
5303;SDS011;2674;49.722;10.892;2023-02-25T17:54:35;1.63;;;1.50;;
5303;SDS011;2674;49.722;10.892;2023-02-25T17:57:18;1.63;;;1.50;;
5303;SDS011;2674;49.722;10.892;2023-02-25T17:59:47;1.53;;;1.40;;
5303;SDS011;2674;49.722;10.892;2023-02-25T18:05:26;3.20;;;2.10;;
5303;SDS011;2674;49.722;10.892;2023-02-25T18:12:51;1.10;;;0.90;;
5303;SDS011;2674;49.722;10.892;2023-02-25T18:15:20;3.47;;;2.23;;
5303;SDS011;2674;49.722;10.892;2023-02-25T18:17:48;1.37;;;1.23;;
5303;SDS011;2674;49.722;10.892;2023-02-25T18:20:33;2.30;;;0.80;;
5303;SDS011;2674;49.722;10.892;2023-02-25T18:23:06;1.43;;;1.10;;
5303;SDS011;2674;49.722;10.892;2023-02-25T18:25:42;1.70;;;1.60;;
5303;SDS011;2674;49.722;10.892;2023-02-25T18:28:35;2.00;;;1.40;;
5303;SDS011;2674;49.722;10.892;2023-02-25T18:31:00;0.73;;;0.73;;
5303;SDS011;2674;49.722;10.892;2023-02-25T18:33:26;1.03;;;0.93;;
5303;SDS011;2674;49.722;10.892;2023-02-25T18:35:52;0.70;;;0.70;;
5303;SDS011;2674;49.722;10.892;2023-02-25T18:38:19;2.40;;;1.10;;
5303;SDS011;2674;49.722;10.892;2023-02-25T18:40:48;1.43;;;1.10;;
5303;SDS011;2674;49.722;10.892;2023-02-25T18:43:16;0.97;;;0.97;;
5303;SDS011;2674;49.722;10.892;2023-02-25T18:45:44;1.17;;;1.10;;
5303;SDS011;2674;49.722;10.892;2023-02-25T18:48:10;1.33;;;1.23;;
5303;SDS011;2674;49.722;10.892;2023-02-25T18:50:37;4.23;;;2.27;;
5303;SDS011;2674;49.722;10.892;2023-02-25T18:53:08;1.60;;;1.50;;
5303;SDS011;2674;49.722;10.892;2023-02-25T18:55:39;3.03;;;2.40;;
5303;SDS011;2674;49.722;10.892;2023-02-25T18:58:09;5.10;;;2.73;;
5303;SDS011;2674;49.722;10.892;2023-02-25T19:00:36;2.93;;;1.37;;
5303;SDS011;2674;49.722;10.892;2023-02-25T19:03:04;14.63;;;2.60;;
5303;SDS011;2674;49.722;10.892;2023-02-25T19:05:31;2.33;;;1.43;;
5303;SDS011;2674;49.722;10.892;2023-02-25T19:07:57;1.70;;;1.60;;
5303;SDS011;2674;49.722;10.892;2023-02-25T19:10:27;1.90;;;1.70;;
5303;SDS011;2674;49.722;10.892;2023-02-25T19:12:59;2.37;;;2.10;;
5303;SDS011;2674;49.722;10.892;2023-02-25T19:15:30;4.43;;;2.10;;
5303;SDS011;2674;49.722;10.892;2023-02-25T19:17:56;43.80;;;12.93;;
5303;SDS011;2674;49.722;10.892;2023-02-25T19:20:22;10.30;;;4.00;;
5303;SDS011;2674;49.722;10.892;2023-02-25T19:22:49;3.97;;;2.63;;
5303;SDS011;2674;49.722;10.892;2023-02-25T19:25:27;6.10;;;3.57;;
5303;SDS011;2674;49.722;10.892;2023-02-25T19:27:54;4.83;;;2.00;;
5303;SDS011;2674;49.722;10.892;2023-02-25T19:30:23;1.33;;;1.23;;
5303;SDS011;2674;49.722;10.892;2023-02-25T19:32:50;1.57;;;1.50;;
5303;SDS011;2674;49.722;10.892;2023-02-25T19:35:17;2.47;;;1.50;;
5303;SDS011;2674;49.722;10.892;2023-02-25T19:37:43;1.27;;;1.27;;
5303;SDS011;2674;49.722;10.892;2023-02-25T19:40:10;1.23;;;1.13;;
5303;SDS011;2674;49.722;10.892;2023-02-25T19:42:39;3.70;;;1.30;;
5303;SDS011;2674;49.722;10.892;2023-02-25T19:45:06;4.03;;;1.87;;
5303;SDS011;2674;49.722;10.892;2023-02-25T19:47:34;1.80;;;1.43;;
5303;SDS011;2674;49.722;10.892;2023-02-25T19:50:02;2.37;;;2.10;;
5303;SDS011;2674;49.722;10.892;2023-02-25T19:52:29;1.23;;;1.13;;
5303;SDS011;2674;49.722;10.892;2023-02-25T19:54:55;2.83;;;1.67;;
5303;SDS011;2674;49.722;10.892;2023-02-25T19:57:21;2.10;;;2.00;;
5303;SDS011;2674;49.722;10.892;2023-02-25T19:59:47;6.90;;;2.20;;